Harrison, Michigan
Current Conditions -  °F | °C
As of 12:53 PM on Saturday 25 Oct 2014 (Local Time) from KHTL Reporting Station
Clear Clear  
Wind Chill: 16°   Ceiling: Unl
Heat Index: 16°   Visibility: 10mi
Dew Point:   Wind: 14mph
Humidity: 44%   Direction: 280°W
Pressure: 29.72"   Gusts: 24mph
Location:  44.02°N, 84.8°W
Report Text: KHTL 251653Z AUTO 28012G21KT 10SM CLR 16/04 A2972 RMK AO2 SLP067 T01610039
Loading
Personal Weather Stations






























Interactive Weather Map
Tropical Storm Tracking
New forecast layout! Learn more

10-Day Weather Forecast

Advertisements
Track Severe Weather on mobile